sensor_id;sensor_type;location;lat;lon;timestamp;P1;durP1;ratioP1;P2;durP2;ratioP2
44822;SDS011;51097;51.984;5.650;2023-10-13T00:01:21;24.23;;;19.38;;
44822;SDS011;51097;51.984;5.650;2023-10-13T00:03:48;29.10;;;20.73;;
44822;SDS011;51097;51.984;5.650;2023-10-13T00:06:14;26.13;;;20.30;;
44822;SDS011;51097;51.984;5.650;2023-10-13T00:08:40;24.25;;;19.40;;
44822;SDS011;51097;51.984;5.650;2023-10-13T00:11:06;25.33;;;19.30;;
44822;SDS011;51097;51.984;5.650;2023-10-13T00:13:36;24.88;;;17.38;;
44822;SDS011;51097;51.984;5.650;2023-10-13T00:16:08;24.05;;;18.63;;
44822;SDS011;51097;51.984;5.650;2023-10-13T00:18:35;25.42;;;19.10;;
44822;SDS011;51097;51.984;5.650;2023-10-13T00:21:07;22.88;;;17.77;;
44822;SDS011;51097;51.984;5.650;2023-10-13T00:23:56;25.47;;;17.70;;
44822;SDS011;51097;51.984;5.650;2023-10-13T00:26:25;26.10;;;17.15;;
44822;SDS011;51097;51.984;5.650;2023-10-13T00:28:55;30.13;;;17.02;;
44822;SDS011;51097;51.984;5.650;2023-10-13T00:31:54;21.67;;;16.67;;
44822;SDS011;51097;51.984;5.650;2023-10-13T00:34:19;22.65;;;17.27;;
44822;SDS011;51097;51.984;5.650;2023-10-13T00:36:50;22.58;;;15.85;;
44822;SDS011;51097;51.984;5.650;2023-10-13T00:39:34;24.02;;;17.00;;
44822;SDS011;51097;51.984;5.650;2023-10-13T00:42:02;20.83;;;15.98;;
44822;SDS011;51097;51.984;5.650;2023-10-13T00:44:32;18.60;;;16.35;;
44822;SDS011;51097;51.984;5.650;2023-10-13T00:47:08;20.88;;;14.98;;
44822;SDS011;51097;51.984;5.650;2023-10-13T00:49:35;22.25;;;17.40;;
44822;SDS011;51097;51.984;5.650;2023-10-13T00:52:05;21.98;;;15.18;;
44822;SDS011;51097;51.984;5.650;2023-10-13T00:57:01;18.23;;;14.45;;
44822;SDS011;51097;51.984;5.650;2023-10-13T00:59:36;17.80;;;14.82;;
44822;SDS011;51097;51.984;5.650;2023-10-13T01:02:02;19.95;;;15.75;;
44822;SDS011;51097;51.984;5.650;2023-10-13T01:04:48;20.52;;;13.93;;
44822;SDS011;51097;51.984;5.650;2023-10-13T01:07:15;21.65;;;14.65;;
44822;SDS011;51097;51.984;5.650;2023-10-13T01:09:47;20.80;;;14.52;;
44822;SDS011;51097;51.984;5.650;2023-10-13T01:12:13;21.40;;;14.23;;
44822;SDS011;51097;51.984;5.650;2023-10-13T01:14:39;25.48;;;15.40;;
44822;SDS011;51097;51.984;5.650;2023-10-13T01:17:05;23.13;;;16.38;;
44822;SDS011;51097;51.984;5.650;2023-10-13T01:19:35;22.08;;;15.93;;
44822;SDS011;51097;51.984;5.650;2023-10-13T01:22:03;21.58;;;14.70;;
44822;SDS011;51097;51.984;5.650;2023-10-13T01:24:31;19.67;;;15.77;;
44822;SDS011;51097;51.984;5.650;2023-10-13T01:27:00;21.48;;;15.85;;
44822;SDS011;51097;51.984;5.650;2023-10-13T01:29:42;21.30;;;15.50;;
44822;SDS011;51097;51.984;5.650;2023-10-13T01:32:14;19.35;;;15.32;;
44822;SDS011;51097;51.984;5.650;2023-10-13T01:34:41;22.77;;;16.38;;
44822;SDS011;51097;51.984;5.650;2023-10-13T01:37:11;18.48;;;15.32;;
44822;SDS011;51097;51.984;5.650;2023-10-13T01:39:36;18.67;;;15.15;;
44822;SDS011;51097;51.984;5.650;2023-10-13T01:42:02;22.00;;;15.25;;
44822;SDS011;51097;51.984;5.650;2023-10-13T01:44:28;19.30;;;13.93;;
44822;SDS011;51097;51.984;5.650;2023-10-13T01:46:55;21.85;;;14.45;;
44822;SDS011;51097;51.984;5.650;2023-10-13T01:49:24;18.77;;;13.80;;
44822;SDS011;51097;51.984;5.650;2023-10-13T01:51:52;18.75;;;13.25;;
44822;SDS011;51097;51.984;5.650;2023-10-13T01:54:18;19.58;;;13.57;;
44822;SDS011;51097;51.984;5.650;2023-10-13T01:56:46;17.83;;;13.73;;
44822;SDS011;51097;51.984;5.650;2023-10-13T01:59:13;19.15;;;15.07;;
44822;SDS011;51097;51.984;5.650;2023-10-13T02:01:42;20.85;;;13.57;;
44822;SDS011;51097;51.984;5.650;2023-10-13T02:04:08;17.52;;;12.15;;
44822;SDS011;51097;51.984;5.650;2023-10-13T02:06:35;16.38;;;12.45;;
44822;SDS011;51097;51.984;5.650;2023-10-13T02:09:03;17.25;;;12.63;;
44822;SDS011;51097;51.984;5.650;2023-10-13T02:11:42;19.05;;;12.35;;
44822;SDS011;51097;51.984;5.650;2023-10-13T02:14:11;18.73;;;12.37;;
44822;SDS011;51097;51.984;5.650;2023-10-13T02:16:40;20.35;;;13.10;;
44822;SDS011;51097;51.984;5.650;2023-10-13T02:19:06;15.75;;;12.23;;
44822;SDS011;51097;51.984;5.650;2023-10-13T02:21:33;15.95;;;12.35;;
44822;SDS011;51097;51.984;5.650;2023-10-13T02:24:07;16.70;;;12.25;;
44822;SDS011;51097;51.984;5.650;2023-10-13T02:26:38;18.95;;;11.52;;
44822;SDS011;51097;51.984;5.650;2023-10-13T02:29:05;17.92;;;12.85;;
44822;SDS011;51097;51.984;5.650;2023-10-13T02:31:38;15.85;;;10.65;;
44822;SDS011;51097;51.984;5.650;2023-10-13T02:34:04;20.40;;;11.40;;
44822;SDS011;51097;51.984;5.650;2023-10-13T02:36:37;20.47;;;10.53;;
44822;SDS011;51097;51.984;5.650;2023-10-13T02:39:17;14.15;;;10.10;;
44822;SDS011;51097;51.984;5.650;2023-10-13T02:41:51;12.30;;;8.57;;
44822;SDS011;51097;51.984;5.650;2023-10-13T02:44:17;16.45;;;11.35;;
44822;SDS011;51097;51.984;5.650;2023-10-13T02:46:52;17.08;;;9.55;;
44822;SDS011;51097;51.984;5.650;2023-10-13T02:49:20;13.85;;;10.98;;
44822;SDS011;51097;51.984;5.650;2023-10-13T02:51:53;21.30;;;10.70;;
44822;SDS011;51097;51.984;5.650;2023-10-13T02:54:24;11.07;;;9.60;;
44822;SDS011;51097;51.984;5.650;2023-10-13T02:56:55;11.25;;;8.23;;
44822;SDS011;51097;51.984;5.650;2023-10-13T02:59:28;14.82;;;8.73;;
44822;SDS011;51097;51.984;5.650;2023-10-13T03:02:20;14.13;;;8.48;;
44822;SDS011;51097;51.984;5.650;2023-10-13T03:04:54;10.90;;;8.27;;
44822;SDS011;51097;51.984;5.650;2023-10-13T03:07:38;26.23;;;10.43;;
44822;SDS011;51097;51.984;5.650;2023-10-13T03:10:07;13.65;;;8.88;;
44822;SDS011;51097;51.984;5.650;2023-10-13T03:12:37;13.93;;;9.20;;
44822;SDS011;51097;51.984;5.650;2023-10-13T03:15:04;14.85;;;9.02;;
44822;SDS011;51097;51.984;5.650;2023-10-13T03:17:42;10.80;;;8.23;;
44822;SDS011;51097;51.984;5.650;2023-10-13T03:20:18;13.18;;;8.38;;
44822;SDS011;51097;51.984;5.650;2023-10-13T03:25:17;9.60;;;6.45;;
44822;SDS011;51097;51.984;5.650;2023-10-13T03:27:54;9.88;;;6.22;;
44822;SDS011;51097;51.984;5.650;2023-10-13T03:30:20;13.85;;;6.75;;
44822;SDS011;51097;51.984;5.650;2023-10-13T03:32:51;10.73;;;6.65;;
44822;SDS011;51097;51.984;5.650;2023-10-13T03:35:21;10.70;;;6.45;;
44822;SDS011;51097;51.984;5.650;2023-10-13T03:37:50;10.60;;;6.90;;
44822;SDS011;51097;51.984;5.650;2023-10-13T03:40:16;10.85;;;6.80;;
44822;SDS011;51097;51.984;5.650;2023-10-13T03:43:02;10.27;;;6.97;;
44822;SDS011;51097;51.984;5.650;2023-10-13T03:45:35;11.77;;;7.18;;
44822;SDS011;51097;51.984;5.650;2023-10-13T03:48:04;12.23;;;7.07;;
44822;SDS011;51097;51.984;5.650;2023-10-13T03:53:31;10.80;;;7.90;;
44822;SDS011;51097;51.984;5.650;2023-10-13T03:56:01;13.13;;;7.82;;
44822;SDS011;51097;51.984;5.650;2023-10-13T03:58:39;17.65;;;9.50;;
44822;SDS011;51097;51.984;5.650;2023-10-13T04:01:10;16.45;;;9.15;;
44822;SDS011;51097;51.984;5.650;2023-10-13T04:03:39;15.75;;;8.20;;
44822;SDS011;51097;51.984;5.650;2023-10-13T04:06:21;15.15;;;9.05;;
44822;SDS011;51097;51.984;5.650;2023-10-13T04:09:07;14.98;;;9.63;;
44822;SDS011;51097;51.984;5.650;2023-10-13T04:11:51;13.35;;;9.70;;
44822;SDS011;51097;51.984;5.650;2023-10-13T04:14:38;16.23;;;8.73;;
44822;SDS011;51097;51.984;5.650;2023-10-13T04:17:40;10.18;;;8.10;;
44822;SDS011;51097;51.984;5.650;2023-10-13T04:20:09;16.15;;;9.80;;
44822;SDS011;51097;51.984;5.650;2023-10-13T04:22:35;13.68;;;10.32;;
44822;SDS011;51097;51.984;5.650;2023-10-13T04:25:14;14.02;;;9.20;;
44822;SDS011;51097;51.984;5.650;2023-10-13T04:28:08;12.55;;;8.88;;
44822;SDS011;51097;51.984;5.650;2023-10-13T04:30:41;13.13;;;10.45;;
44822;SDS011;51097;51.984;5.650;2023-10-13T04:33:25;13.30;;;9.95;;
44822;SDS011;51097;51.984;5.650;2023-10-13T04:38:49;17.88;;;11.52;;
44822;SDS011;51097;51.984;5.650;2023-10-13T04:41:29;18.55;;;12.55;;
44822;SDS011;51097;51.984;5.650;2023-10-13T04:44:07;22.40;;;13.38;;
44822;SDS011;51097;51.984;5.650;2023-10-13T04:47:15;20.85;;;13.95;;
44822;SDS011;51097;51.984;5.650;2023-10-13T04:49:46;21.00;;;14.45;;
44822;SDS011;51097;51.984;5.650;2023-10-13T04:52:12;21.40;;;15.43;;
44822;SDS011;51097;51.984;5.650;2023-10-13T04:54:41;22.00;;;14.55;;
44822;SDS011;51097;51.984;5.650;2023-10-13T04:57:15;20.80;;;15.90;;
44822;SDS011;51097;51.984;5.650;2023-10-13T05:00:11;23.15;;;15.60;;
44822;SDS011;51097;51.984;5.650;2023-10-13T05:02:44;23.80;;;17.63;;
44822;SDS011;51097;51.984;5.650;2023-10-13T05:05:29;23.50;;;15.93;;
44822;SDS011;51097;51.984;5.650;2023-10-13T05:08:29;25.33;;;16.92;;
44822;SDS011;51097;51.984;5.650;2023-10-13T05:11:14;25.17;;;17.52;;
44822;SDS011;51097;51.984;5.650;2023-10-13T05:13:58;26.25;;;17.75;;
44822;SDS011;51097;51.984;5.650;2023-10-13T05:16:42;24.75;;;19.38;;
44822;SDS011;51097;51.984;5.650;2023-10-13T05:19:26;24.98;;;18.52;;
44822;SDS011;51097;51.984;5.650;2023-10-13T05:22:10;24.25;;;17.92;;
44822;SDS011;51097;51.984;5.650;2023-10-13T05:24:55;26.45;;;17.75;;
44822;SDS011;51097;51.984;5.650;2023-10-13T05:27:39;22.85;;;15.73;;
44822;SDS011;51097;51.984;5.650;2023-10-13T05:30:23;23.08;;;16.38;;
44822;SDS011;51097;51.984;5.650;2023-10-13T05:33:07;23.55;;;16.70;;
44822;SDS011;51097;51.984;5.650;2023-10-13T05:35:51;21.92;;;16.35;;
44822;SDS011;51097;51.984;5.650;2023-10-13T05:38:35;17.55;;;15.00;;
44822;SDS011;51097;51.984;5.650;2023-10-13T05:41:19;18.90;;;14.10;;
44822;SDS011;51097;51.984;5.650;2023-10-13T05:44:04;19.15;;;13.02;;
44822;SDS011;51097;51.984;5.650;2023-10-13T05:46:48;16.63;;;12.20;;
44822;SDS011;51097;51.984;5.650;2023-10-13T05:49:32;16.15;;;11.32;;
44822;SDS011;51097;51.984;5.650;2023-10-13T05:52:18;12.85;;;10.02;;
44822;SDS011;51097;51.984;5.650;2023-10-13T05:54:44;13.38;;;9.20;;
44822;SDS011;51097;51.984;5.650;2023-10-13T05:57:29;13.07;;;9.48;;
44822;SDS011;51097;51.984;5.650;2023-10-13T06:00:13;14.25;;;9.93;;
44822;SDS011;51097;51.984;5.650;2023-10-13T06:02:58;10.57;;;8.82;;
44822;SDS011;51097;51.984;5.650;2023-10-13T06:05:42;14.27;;;10.07;;
44822;SDS011;51097;51.984;5.650;2023-10-13T06:08:26;11.63;;;9.45;;
44822;SDS011;51097;51.984;5.650;2023-10-13T06:11:10;13.20;;;10.00;;
44822;SDS011;51097;51.984;5.650;2023-10-13T06:13:54;14.88;;;10.15;;
44822;SDS011;51097;51.984;5.650;2023-10-13T06:16:38;15.65;;;10.68;;
44822;SDS011;51097;51.984;5.650;2023-10-13T06:19:22;14.73;;;11.45;;
44822;SDS011;51097;51.984;5.650;2023-10-13T06:22:06;14.18;;;10.05;;
44822;SDS011;51097;51.984;5.650;2023-10-13T06:24:50;16.55;;;10.20;;
44822;SDS011;51097;51.984;5.650;2023-10-13T06:27:34;15.98;;;10.70;;
44822;SDS011;51097;51.984;5.650;2023-10-13T06:30:18;11.10;;;9.90;;
44822;SDS011;51097;51.984;5.650;2023-10-13T06:32:44;11.82;;;9.95;;
44822;SDS011;51097;51.984;5.650;2023-10-13T06:35:11;12.05;;;10.68;;
44822;SDS011;51097;51.984;5.650;2023-10-13T06:37:49;11.13;;;9.80;;
44822;SDS011;51097;51.984;5.650;2023-10-13T06:40:17;11.85;;;10.30;;
44822;SDS011;51097;51.984;5.650;2023-10-13T06:42:46;12.73;;;10.32;;
44822;SDS011;51097;51.984;5.650;2023-10-13T06:45:12;11.80;;;10.02;;
44822;SDS011;51097;51.984;5.650;2023-10-13T06:47:38;15.13;;;10.98;;
44822;SDS011;51097;51.984;5.650;2023-10-13T06:50:10;13.90;;;10.07;;
44822;SDS011;51097;51.984;5.650;2023-10-13T06:52:49;12.35;;;9.77;;
44822;SDS011;51097;51.984;5.650;2023-10-13T06:55:15;12.07;;;9.60;;
44822;SDS011;51097;51.984;5.650;2023-10-13T06:57:49;11.52;;;8.40;;
44822;SDS011;51097;51.984;5.650;2023-10-13T07:00:16;9.88;;;8.05;;
44822;SDS011;51097;51.984;5.650;2023-10-13T07:02:53;9.55;;;7.68;;
44822;SDS011;51097;51.984;5.650;2023-10-13T07:05:19;9.63;;;8.48;;
44822;SDS011;51097;51.984;5.650;2023-10-13T07:07:44;9.10;;;8.00;;
44822;SDS011;51097;51.984;5.650;2023-10-13T07:10:11;11.45;;;9.20;;
44822;SDS011;51097;51.984;5.650;2023-10-13T07:12:38;13.10;;;9.07;;
44822;SDS011;51097;51.984;5.650;2023-10-13T07:15:11;13.90;;;8.75;;
44822;SDS011;51097;51.984;5.650;2023-10-13T07:17:44;15.15;;;9.60;;
44822;SDS011;51097;51.984;5.650;2023-10-13T07:20:19;11.95;;;7.65;;
44822;SDS011;51097;51.984;5.650;2023-10-13T07:22:54;13.75;;;8.00;;
44822;SDS011;51097;51.984;5.650;2023-10-13T07:25:22;15.23;;;8.30;;
44822;SDS011;51097;51.984;5.650;2023-10-13T07:27:51;13.55;;;8.85;;
44822;SDS011;51097;51.984;5.650;2023-10-13T07:30:17;13.85;;;9.32;;
44822;SDS011;51097;51.984;5.650;2023-10-13T07:32:45;13.38;;;8.50;;
44822;SDS011;51097;51.984;5.650;2023-10-13T07:35:14;21.73;;;9.05;;
44822;SDS011;51097;51.984;5.650;2023-10-13T07:37:46;13.48;;;8.10;;
44822;SDS011;51097;51.984;5.650;2023-10-13T07:40:17;14.43;;;9.07;;
44822;SDS011;51097;51.984;5.650;2023-10-13T07:42:52;14.38;;;8.70;;
44822;SDS011;51097;51.984;5.650;2023-10-13T07:45:25;15.80;;;8.73;;
44822;SDS011;51097;51.984;5.650;2023-10-13T07:48:00;18.40;;;9.50;;
44822;SDS011;51097;51.984;5.650;2023-10-13T07:50:32;15.23;;;8.85;;
44822;SDS011;51097;51.984;5.650;2023-10-13T07:52:59;16.60;;;9.65;;
44822;SDS011;51097;51.984;5.650;2023-10-13T07:55:44;16.08;;;9.00;;
44822;SDS011;51097;51.984;5.650;2023-10-13T07:58:22;16.55;;;9.07;;
44822;SDS011;51097;51.984;5.650;2023-10-13T08:00:50;20.52;;;8.77;;
44822;SDS011;51097;51.984;5.650;2023-10-13T08:03:20;16.92;;;8.70;;
44822;SDS011;51097;51.984;5.650;2023-10-13T08:06:00;14.70;;;9.02;;
44822;SDS011;51097;51.984;5.650;2023-10-13T08:08:44;21.38;;;9.05;;
44822;SDS011;51097;51.984;5.650;2023-10-13T08:11:20;12.70;;;8.00;;
44822;SDS011;51097;51.984;5.650;2023-10-13T08:13:50;22.20;;;9.63;;
44822;SDS011;51097;51.984;5.650;2023-10-13T08:16:21;17.23;;;8.68;;
44822;SDS011;51097;51.984;5.650;2023-10-13T08:18:51;13.07;;;8.75;;
44822;SDS011;51097;51.984;5.650;2023-10-13T08:21:22;17.50;;;8.18;;
44822;SDS011;51097;51.984;5.650;2023-10-13T08:23:49;15.52;;;7.97;;
44822;SDS011;51097;51.984;5.650;2023-10-13T08:26:21;13.63;;;7.43;;
44822;SDS011;51097;51.984;5.650;2023-10-13T08:29:06;18.08;;;7.55;;
44822;SDS011;51097;51.984;5.650;2023-10-13T08:31:47;19.00;;;7.50;;
44822;SDS011;51097;51.984;5.650;2023-10-13T08:34:29;13.15;;;7.60;;
44822;SDS011;51097;51.984;5.650;2023-10-13T08:37:07;13.55;;;6.78;;
44822;SDS011;51097;51.984;5.650;2023-10-13T08:39:54;15.43;;;7.28;;
44822;SDS011;51097;51.984;5.650;2023-10-13T08:42:31;15.68;;;7.00;;
44822;SDS011;51097;51.984;5.650;2023-10-13T08:45:07;12.65;;;7.30;;
44822;SDS011;51097;51.984;5.650;2023-10-13T08:47:49;13.15;;;7.25;;
44822;SDS011;51097;51.984;5.650;2023-10-13T08:50:22;12.95;;;6.50;;
44822;SDS011;51097;51.984;5.650;2023-10-13T08:53:09;13.75;;;6.93;;
44822;SDS011;51097;51.984;5.650;2023-10-13T08:58:26;11.55;;;6.53;;
44822;SDS011;51097;51.984;5.650;2023-10-13T09:01:12;17.42;;;7.63;;
44822;SDS011;51097;51.984;5.650;2023-10-13T09:03:42;14.88;;;6.95;;
44822;SDS011;51097;51.984;5.650;2023-10-13T09:06:12;13.77;;;6.97;;
44822;SDS011;51097;51.984;5.650;2023-10-13T09:08:45;13.63;;;6.22;;
44822;SDS011;51097;51.984;5.650;2023-10-13T09:11:33;19.15;;;7.00;;
44822;SDS011;51097;51.984;5.650;2023-10-13T09:14:14;12.65;;;6.60;;
44822;SDS011;51097;51.984;5.650;2023-10-13T09:17:01;12.48;;;6.60;;
44822;SDS011;51097;51.984;5.650;2023-10-13T09:19:51;11.93;;;7.47;;
44822;SDS011;51097;51.984;5.650;2023-10-13T09:22:27;18.80;;;7.40;;
44822;SDS011;51097;51.984;5.650;2023-10-13T09:25:03;17.97;;;7.90;;
44822;SDS011;51097;51.984;5.650;2023-10-13T09:27:38;12.38;;;6.28;;
44822;SDS011;51097;51.984;5.650;2023-10-13T09:30:05;14.68;;;7.78;;
44822;SDS011;51097;51.984;5.650;2023-10-13T09:32:47;12.52;;;6.53;;
44822;SDS011;51097;51.984;5.650;2023-10-13T09:35:26;18.10;;;8.82;;
44822;SDS011;51097;51.984;5.650;2023-10-13T09:37:53;12.65;;;7.30;;
44822;SDS011;51097;51.984;5.650;2023-10-13T09:40:22;12.97;;;6.83;;
44822;SDS011;51097;51.984;5.650;2023-10-13T09:42:54;17.10;;;7.30;;
44822;SDS011;51097;51.984;5.650;2023-10-13T09:45:28;17.75;;;8.48;;
44822;SDS011;51097;51.984;5.650;2023-10-13T09:48:05;14.95;;;7.63;;
44822;SDS011;51097;51.984;5.650;2023-10-13T09:50:42;13.93;;;6.43;;
44822;SDS011;51097;51.984;5.650;2023-10-13T09:53:10;10.95;;;7.07;;
44822;SDS011;51097;51.984;5.650;2023-10-13T09:55:43;10.65;;;6.15;;
44822;SDS011;51097;51.984;5.650;2023-10-13T09:58:13;11.95;;;7.68;;
44822;SDS011;51097;51.984;5.650;2023-10-13T10:00:54;19.90;;;7.25;;
44822;SDS011;51097;51.984;5.650;2023-10-13T10:03:32;18.65;;;7.90;;
44822;SDS011;51097;51.984;5.650;2023-10-13T10:06:01;16.15;;;7.40;;
44822;SDS011;51097;51.984;5.650;2023-10-13T10:08:32;15.07;;;6.28;;
44822;SDS011;51097;51.984;5.650;2023-10-13T10:11:17;17.70;;;8.52;;
44822;SDS011;51097;51.984;5.650;2023-10-13T10:14:47;18.92;;;7.53;;
44822;SDS011;51097;51.984;5.650;2023-10-13T10:17:07;13.82;;;7.72;;
44822;SDS011;51097;51.984;5.650;2023-10-13T10:19:45;15.15;;;7.45;;
44822;SDS011;51097;51.984;5.650;2023-10-13T10:22:25;12.40;;;6.60;;
44822;SDS011;51097;51.984;5.650;2023-10-13T10:25:03;13.48;;;7.03;;
44822;SDS011;51097;51.984;5.650;2023-10-13T10:27:32;16.90;;;7.45;;
44822;SDS011;51097;51.984;5.650;2023-10-13T10:29:59;14.13;;;7.38;;
44822;SDS011;51097;51.984;5.650;2023-10-13T10:32:36;12.82;;;6.70;;
44822;SDS011;51097;51.984;5.650;2023-10-13T10:35:03;11.65;;;7.40;;
44822;SDS011;51097;51.984;5.650;2023-10-13T10:37:33;15.68;;;6.50;;
44822;SDS011;51097;51.984;5.650;2023-10-13T10:39:59;12.85;;;6.60;;
44822;SDS011;51097;51.984;5.650;2023-10-13T10:42:30;12.13;;;7.05;;
44822;SDS011;51097;51.984;5.650;2023-10-13T10:44:56;11.07;;;5.80;;
44822;SDS011;51097;51.984;5.650;2023-10-13T10:47:23;17.73;;;7.88;;
44822;SDS011;51097;51.984;5.650;2023-10-13T10:50:01;15.45;;;7.05;;
44822;SDS011;51097;51.984;5.650;2023-10-13T10:52:45;14.73;;;7.35;;
44822;SDS011;51097;51.984;5.650;2023-10-13T10:55:12;14.07;;;7.47;;
44822;SDS011;51097;51.984;5.650;2023-10-13T10:57:42;10.50;;;7.03;;
44822;SDS011;51097;51.984;5.650;2023-10-13T11:00:29;12.82;;;6.75;;
44822;SDS011;51097;51.984;5.650;2023-10-13T11:03:07;11.82;;;6.13;;
44822;SDS011;51097;51.984;5.650;2023-10-13T11:05:42;13.30;;;6.90;;
44822;SDS011;51097;51.984;5.650;2023-10-13T11:08:21;16.63;;;7.37;;
44822;SDS011;51097;51.984;5.650;2023-10-13T11:10:58;15.98;;;7.05;;
44822;SDS011;51097;51.984;5.650;2023-10-13T11:13:27;17.55;;;7.30;;
44822;SDS011;51097;51.984;5.650;2023-10-13T11:18:29;13.98;;;8.05;;
44822;SDS011;51097;51.984;5.650;2023-10-13T11:21:03;11.77;;;6.88;;
44822;SDS011;51097;51.984;5.650;2023-10-13T11:23:32;19.05;;;7.35;;
44822;SDS011;51097;51.984;5.650;2023-10-13T11:26:01;18.58;;;8.65;;
44822;SDS011;51097;51.984;5.650;2023-10-13T11:28:29;17.23;;;6.95;;
44822;SDS011;51097;51.984;5.650;2023-10-13T11:30:57;15.85;;;7.57;;
44822;SDS011;51097;51.984;5.650;2023-10-13T11:33:24;14.48;;;6.97;;
44822;SDS011;51097;51.984;5.650;2023-10-13T11:35:54;16.25;;;7.97;;
44822;SDS011;51097;51.984;5.650;2023-10-13T11:38:21;16.92;;;6.97;;
44822;SDS011;51097;51.984;5.650;2023-10-13T11:40:57;12.98;;;8.23;;
44822;SDS011;51097;51.984;5.650;2023-10-13T11:43:33;15.55;;;7.10;;
44822;SDS011;51097;51.984;5.650;2023-10-13T11:46:12;13.52;;;7.40;;
44822;SDS011;51097;51.984;5.650;2023-10-13T11:48:40;19.65;;;8.10;;
44822;SDS011;51097;51.984;5.650;2023-10-13T11:51:07;17.23;;;8.40;;
44822;SDS011;51097;51.984;5.650;2023-10-13T11:53:43;22.35;;;8.50;;
44822;SDS011;51097;51.984;5.650;2023-10-13T11:56:21;19.17;;;9.00;;
44822;SDS011;51097;51.984;5.650;2023-10-13T11:58:50;20.80;;;9.35;;
44822;SDS011;51097;51.984;5.650;2023-10-13T12:01:16;17.90;;;7.85;;
44822;SDS011;51097;51.984;5.650;2023-10-13T12:03:46;13.68;;;6.47;;
44822;SDS011;51097;51.984;5.650;2023-10-13T12:06:36;14.50;;;7.18;;
44822;SDS011;51097;51.984;5.650;2023-10-13T12:11:42;17.73;;;9.77;;
44822;SDS011;51097;51.984;5.650;2023-10-13T12:14:10;12.90;;;7.18;;
44822;SDS011;51097;51.984;5.650;2023-10-13T12:16:48;17.77;;;7.65;;
44822;SDS011;51097;51.984;5.650;2023-10-13T12:19:24;17.40;;;8.60;;
44822;SDS011;51097;51.984;5.650;2023-10-13T12:21:52;19.05;;;8.50;;
44822;SDS011;51097;51.984;5.650;2023-10-13T12:24:22;20.38;;;10.23;;
44822;SDS011;51097;51.984;5.650;2023-10-13T12:27:01;11.40;;;6.97;;
44822;SDS011;51097;51.984;5.650;2023-10-13T12:29:27;23.17;;;9.60;;
44822;SDS011;51097;51.984;5.650;2023-10-13T12:31:57;20.58;;;7.57;;
44822;SDS011;51097;51.984;5.650;2023-10-13T12:34:46;15.35;;;8.10;;
44822;SDS011;51097;51.984;5.650;2023-10-13T12:37:28;13.40;;;7.53;;
44822;SDS011;51097;51.984;5.650;2023-10-13T12:40:12;14.02;;;7.30;;
44822;SDS011;51097;51.984;5.650;2023-10-13T12:42:57;23.40;;;8.60;;
44822;SDS011;51097;51.984;5.650;2023-10-13T12:45:42;18.00;;;8.70;;
44822;SDS011;51097;51.984;5.650;2023-10-13T12:48:27;17.70;;;8.30;;
44822;SDS011;51097;51.984;5.650;2023-10-13T12:51:11;15.38;;;7.38;;
44822;SDS011;51097;51.984;5.650;2023-10-13T12:53:49;16.10;;;9.50;;
44822;SDS011;51097;51.984;5.650;2023-10-13T12:56:19;16.75;;;8.20;;
44822;SDS011;51097;51.984;5.650;2023-10-13T12:58:52;17.77;;;8.02;;
44822;SDS011;51097;51.984;5.650;2023-10-13T13:01:21;19.08;;;8.35;;
44822;SDS011;51097;51.984;5.650;2023-10-13T13:03:49;21.55;;;8.02;;
44822;SDS011;51097;51.984;5.650;2023-10-13T13:06:16;18.55;;;9.48;;
44822;SDS011;51097;51.984;5.650;2023-10-13T13:08:54;20.85;;;7.78;;
44822;SDS011;51097;51.984;5.650;2023-10-13T13:11:21;18.50;;;7.45;;
44822;SDS011;51097;51.984;5.650;2023-10-13T13:13:47;19.35;;;9.07;;
44822;SDS011;51097;51.984;5.650;2023-10-13T13:16:13;19.13;;;8.43;;
44822;SDS011;51097;51.984;5.650;2023-10-13T13:18:44;13.43;;;7.38;;
44822;SDS011;51097;51.984;5.650;2023-10-13T13:21:10;14.50;;;7.80;;
44822;SDS011;51097;51.984;5.650;2023-10-13T13:23:45;19.15;;;8.15;;
44822;SDS011;51097;51.984;5.650;2023-10-13T13:26:11;16.70;;;9.25;;
44822;SDS011;51097;51.984;5.650;2023-10-13T13:28:45;16.42;;;8.57;;
44822;SDS011;51097;51.984;5.650;2023-10-13T13:31:19;21.85;;;9.57;;
44822;SDS011;51097;51.984;5.650;2023-10-13T13:33:50;12.25;;;7.25;;
44822;SDS011;51097;51.984;5.650;2023-10-13T13:36:15;16.33;;;7.88;;
44822;SDS011;51097;51.984;5.650;2023-10-13T13:38:44;18.33;;;7.80;;
44822;SDS011;51097;51.984;5.650;2023-10-13T13:41:15;17.45;;;8.48;;
44822;SDS011;51097;51.984;5.650;2023-10-13T13:43:45;15.43;;;7.65;;
44822;SDS011;51097;51.984;5.650;2023-10-13T13:46:15;12.93;;;8.10;;
44822;SDS011;51097;51.984;5.650;2023-10-13T13:48:44;16.77;;;7.90;;
44822;SDS011;51097;51.984;5.650;2023-10-13T13:51:13;17.17;;;7.82;;
44822;SDS011;51097;51.984;5.650;2023-10-13T13:53:51;14.00;;;7.53;;
44822;SDS011;51097;51.984;5.650;2023-10-13T13:56:18;16.00;;;8.07;;
44822;SDS011;51097;51.984;5.650;2023-10-13T13:58:50;18.25;;;8.85;;
44822;SDS011;51097;51.984;5.650;2023-10-13T14:01:17;14.52;;;7.97;;
44822;SDS011;51097;51.984;5.650;2023-10-13T14:03:52;14.27;;;7.32;;
44822;SDS011;51097;51.984;5.650;2023-10-13T14:06:22;14.18;;;7.90;;
44822;SDS011;51097;51.984;5.650;2023-10-13T14:08:53;17.52;;;8.90;;
44822;SDS011;51097;51.984;5.650;2023-10-13T14:11:25;14.93;;;8.63;;
44822;SDS011;51097;51.984;5.650;2023-10-13T14:14:13;18.33;;;8.20;;
44822;SDS011;51097;51.984;5.650;2023-10-13T14:16:52;18.02;;;7.40;;
44822;SDS011;51097;51.984;5.650;2023-10-13T14:19:18;17.45;;;8.52;;
44822;SDS011;51097;51.984;5.650;2023-10-13T14:21:54;17.73;;;7.30;;
44822;SDS011;51097;51.984;5.650;2023-10-13T14:24:24;17.73;;;8.85;;
44822;SDS011;51097;51.984;5.650;2023-10-13T14:26:53;15.20;;;7.30;;
44822;SDS011;51097;51.984;5.650;2023-10-13T14:29:19;17.17;;;8.15;;
44822;SDS011;51097;51.984;5.650;2023-10-13T14:31:45;16.40;;;7.90;;
44822;SDS011;51097;51.984;5.650;2023-10-13T14:34:13;17.25;;;7.75;;
44822;SDS011;51097;51.984;5.650;2023-10-13T14:36:42;21.65;;;7.88;;
44822;SDS011;51097;51.984;5.650;2023-10-13T14:39:13;22.17;;;7.20;;
44822;SDS011;51097;51.984;5.650;2023-10-13T14:41:39;15.43;;;8.65;;
44822;SDS011;51097;51.984;5.650;2023-10-13T14:44:05;17.95;;;7.82;;
44822;SDS011;51097;51.984;5.650;2023-10-13T14:46:32;15.85;;;7.55;;
44822;SDS011;51097;51.984;5.650;2023-10-13T14:49:01;16.17;;;6.78;;
44822;SDS011;51097;51.984;5.650;2023-10-13T14:51:29;15.00;;;7.93;;
44822;SDS011;51097;51.984;5.650;2023-10-13T14:53:56;14.60;;;8.23;;
44822;SDS011;51097;51.984;5.650;2023-10-13T14:56:24;15.90;;;8.27;;
44822;SDS011;51097;51.984;5.650;2023-10-13T14:58:52;16.08;;;8.63;;
44822;SDS011;51097;51.984;5.650;2023-10-13T15:01:18;10.18;;;8.05;;
44822;SDS011;51097;51.984;5.650;2023-10-13T15:03:46;16.70;;;9.25;;
44822;SDS011;51097;51.984;5.650;2023-10-13T15:06:19;14.18;;;8.52;;
44822;SDS011;51097;51.984;5.650;2023-10-13T15:08:48;13.00;;;8.13;;
44822;SDS011;51097;51.984;5.650;2023-10-13T15:11:14;15.65;;;8.50;;
44822;SDS011;51097;51.984;5.650;2023-10-13T15:13:43;13.63;;;7.65;;
44822;SDS011;51097;51.984;5.650;2023-10-13T15:16:15;13.70;;;8.55;;
44822;SDS011;51097;51.984;5.650;2023-10-13T15:18:43;15.13;;;9.18;;
44822;SDS011;51097;51.984;5.650;2023-10-13T15:21:10;16.02;;;8.02;;
44822;SDS011;51097;51.984;5.650;2023-10-13T15:23:35;12.98;;;8.68;;
44822;SDS011;51097;51.984;5.650;2023-10-13T15:26:07;14.77;;;8.25;;
44822;SDS011;51097;51.984;5.650;2023-10-13T15:28:39;18.40;;;8.77;;